sensor_id;sensor_type;location;lat;lon;timestamp;pressure;altitude;pressure_sealevel;temperature;humidity
55301;BME280;58302;51.446;-2.000;2022-12-10T00:01:30;100153.09;;;-6.75;100.00
55301;BME280;58302;51.446;-2.000;2022-12-10T00:03:57;100158.31;;;-6.83;100.00
55301;BME280;58302;51.446;-2.000;2022-12-10T00:06:26;100148.56;;;-6.91;100.00
55301;BME280;58302;51.446;-2.000;2022-12-10T00:08:52;100150.69;;;-7.02;100.00
55301;BME280;58302;51.446;-2.000;2022-12-10T00:11:20;100152.28;;;-7.09;100.00
55301;BME280;58302;51.446;-2.000;2022-12-10T00:13:47;100157.06;;;-7.13;100.00
55301;BME280;58302;51.446;-2.000;2022-12-10T00:16:15;100156.25;;;-7.05;100.00
55301;BME280;58302;51.446;-2.000;2022-12-10T00:18:42;100153.03;;;-6.91;100.00
55301;BME280;58302;51.446;-2.000;2022-12-10T00:21:11;100152.88;;;-6.81;100.00
55301;BME280;58302;51.446;-2.000;2022-12-10T00:23:39;100142.47;;;-6.83;100.00
55301;BME280;58302;51.446;-2.000;2022-12-10T00:26:07;100145.09;;;-6.91;100.00
55301;BME280;58302;51.446;-2.000;2022-12-10T00:28:37;100145.25;;;-6.93;100.00
55301;BME280;58302;51.446;-2.000;2022-12-10T00:31:12;100146.75;;;-6.90;100.00
55301;BME280;58302;51.446;-2.000;2022-12-10T00:33:38;100141.63;;;-6.92;100.00
55301;BME280;58302;51.446;-2.000;2022-12-10T00:36:08;100152.22;;;-6.92;100.00
55301;BME280;58302;51.446;-2.000;2022-12-10T00:38:35;100139.97;;;-6.93;100.00
55301;BME280;58302;51.446;-2.000;2022-12-10T00:41:02;100145.75;;;-6.89;100.00
55301;BME280;58302;51.446;-2.000;2022-12-10T00:43:28;100153.03;;;-6.91;100.00
55301;BME280;58302;51.446;-2.000;2022-12-10T00:45:54;100154.50;;;-6.97;100.00
55301;BME280;58302;51.446;-2.000;2022-12-10T00:48:21;100147.22;;;-7.03;100.00
55301;BME280;58302;51.446;-2.000;2022-12-10T00:50:57;100155.13;;;-7.03;100.00
55301;BME280;58302;51.446;-2.000;2022-12-10T00:53:24;100157.13;;;-6.97;100.00
55301;BME280;58302;51.446;-2.000;2022-12-10T00:55:51;100152.81;;;-6.98;100.00
55301;BME280;58302;51.446;-2.000;2022-12-10T00:58:17;100154.97;;;-6.93;100.00
55301;BME280;58302;51.446;-2.000;2022-12-10T01:00:43;100146.41;;;-6.95;100.00
55301;BME280;58302;51.446;-2.000;2022-12-10T01:03:09;100156.31;;;-6.89;100.00
55301;BME280;58302;51.446;-2.000;2022-12-10T01:05:35;100145.56;;;-6.96;100.00
55301;BME280;58302;51.446;-2.000;2022-12-10T01:08:01;100158.94;;;-6.97;100.00
55301;BME280;58302;51.446;-2.000;2022-12-10T01:10:27;100161.25;;;-6.94;100.00
55301;BME280;58302;51.446;-2.000;2022-12-10T01:12:53;100160.59;;;-6.96;100.00
55301;BME280;58302;51.446;-2.000;2022-12-10T01:15:19;100160.75;;;-6.98;100.00
55301;BME280;58302;51.446;-2.000;2022-12-10T01:17:45;100164.69;;;-7.02;100.00
55301;BME280;58302;51.446;-2.000;2022-12-10T01:20:11;100162.56;;;-6.98;100.00
55301;BME280;58302;51.446;-2.000;2022-12-10T01:22:38;100164.22;;;-6.97;100.00
55301;BME280;58302;51.446;-2.000;2022-12-10T01:25:04;100164.53;;;-7.00;100.00
55301;BME280;58302;51.446;-2.000;2022-12-10T01:27:30;100165.00;;;-7.13;100.00
55301;BME280;58302;51.446;-2.000;2022-12-10T01:29:56;100156.53;;;-7.25;100.00
55301;BME280;58302;51.446;-2.000;2022-12-10T01:32:22;100157.13;;;-7.31;100.00
55301;BME280;58302;51.446;-2.000;2022-12-10T01:34:48;100160.09;;;-7.34;100.00
55301;BME280;58302;51.446;-2.000;2022-12-10T01:37:14;100160.56;;;-7.38;100.00
55301;BME280;58302;51.446;-2.000;2022-12-10T01:39:40;100161.53;;;-7.39;100.00
55301;BME280;58302;51.446;-2.000;2022-12-10T01:42:09;100165.31;;;-7.42;100.00
55301;BME280;58302;51.446;-2.000;2022-12-10T01:47:06;100163.47;;;-7.50;100.00
55301;BME280;58302;51.446;-2.000;2022-12-10T01:49:36;100157.16;;;-7.57;100.00
55301;BME280;58302;51.446;-2.000;2022-12-10T01:52:03;100161.25;;;-7.62;100.00
55301;BME280;58302;51.446;-2.000;2022-12-10T01:54:33;100164.19;;;-7.65;100.00
55301;BME280;58302;51.446;-2.000;2022-12-10T01:57:08;100159.09;;;-7.59;100.00
55301;BME280;58302;51.446;-2.000;2022-12-10T01:59:36;100156.44;;;-7.67;100.00
55301;BME280;58302;51.446;-2.000;2022-12-10T02:12:41;100150.47;;;-7.95;100.00
55301;BME280;58302;51.446;-2.000;2022-12-10T02:15:14;100148.88;;;-7.88;100.00
55301;BME280;58302;51.446;-2.000;2022-12-10T02:17:45;100143.13;;;-7.83;100.00
55301;BME280;58302;51.446;-2.000;2022-12-10T02:20:16;100151.41;;;-7.78;100.00
55301;BME280;58302;51.446;-2.000;2022-12-10T02:22:57;100144.16;;;-7.76;100.00
55301;BME280;58302;51.446;-2.000;2022-12-10T02:25:31;100147.00;;;-7.70;100.00
55301;BME280;58302;51.446;-2.000;2022-12-10T02:28:10;100150.69;;;-7.62;100.00
55301;BME280;58302;51.446;-2.000;2022-12-10T02:30:39;100151.81;;;-7.65;100.00
55301;BME280;58302;51.446;-2.000;2022-12-10T02:33:09;100148.97;;;-7.72;100.00
55301;BME280;58302;51.446;-2.000;2022-12-10T02:35:37;100148.94;;;-7.80;100.00
55301;BME280;58302;51.446;-2.000;2022-12-10T02:38:12;100158.59;;;-7.88;100.00
55301;BME280;58302;51.446;-2.000;2022-12-10T02:40:44;100162.97;;;-7.97;100.00
55301;BME280;58302;51.446;-2.000;2022-12-10T02:43:13;100163.31;;;-7.92;100.00
55301;BME280;58302;51.446;-2.000;2022-12-10T02:45:41;100160.78;;;-7.84;100.00
55301;BME280;58302;51.446;-2.000;2022-12-10T02:48:09;100169.34;;;-7.82;100.00
55301;BME280;58302;51.446;-2.000;2022-12-10T02:50:35;100174.63;;;-7.82;100.00
55301;BME280;58302;51.446;-2.000;2022-12-10T02:53:01;100168.59;;;-7.74;100.00
55301;BME280;58302;51.446;-2.000;2022-12-10T02:55:31;100165.63;;;-7.71;100.00
55301;BME280;58302;51.446;-2.000;2022-12-10T02:58:23;100166.78;;;-7.74;100.00
55301;BME280;58302;51.446;-2.000;2022-12-10T03:03:52;100161.28;;;-7.80;100.00
55301;BME280;58302;51.446;-2.000;2022-12-10T03:06:36;100157.50;;;-7.78;100.00
55301;BME280;58302;51.446;-2.000;2022-12-10T03:09:12;100164.34;;;-7.67;100.00
55301;BME280;58302;51.446;-2.000;2022-12-10T03:11:41;100160.78;;;-7.58;100.00
55301;BME280;58302;51.446;-2.000;2022-12-10T03:14:29;100151.25;;;-7.51;100.00
55301;BME280;58302;51.446;-2.000;2022-12-10T03:16:58;100150.09;;;-7.48;100.00
55301;BME280;58302;51.446;-2.000;2022-12-10T03:19:34;100147.78;;;-7.51;100.00
55301;BME280;58302;51.446;-2.000;2022-12-10T03:22:03;100153.94;;;-7.43;100.00
55301;BME280;58302;51.446;-2.000;2022-12-10T03:24:30;100151.97;;;-7.40;100.00
55301;BME280;58302;51.446;-2.000;2022-12-10T03:26:58;100158.72;;;-7.46;100.00
55301;BME280;58302;51.446;-2.000;2022-12-10T03:29:31;100139.34;;;-7.55;100.00
55301;BME280;58302;51.446;-2.000;2022-12-10T03:31:59;100144.97;;;-7.58;100.00
55301;BME280;58302;51.446;-2.000;2022-12-10T03:34:26;100150.06;;;-7.56;100.00
55301;BME280;58302;51.446;-2.000;2022-12-10T03:36:52;100148.25;;;-7.56;100.00
55301;BME280;58302;51.446;-2.000;2022-12-10T03:39:19;100147.09;;;-7.53;100.00
55301;BME280;58302;51.446;-2.000;2022-12-10T03:41:45;100148.00;;;-7.45;100.00
55301;BME280;58302;51.446;-2.000;2022-12-10T03:44:11;100147.09;;;-7.27;100.00
55301;BME280;58302;51.446;-2.000;2022-12-10T03:46:38;100145.19;;;-7.09;100.00
55301;BME280;58302;51.446;-2.000;2022-12-10T03:49:04;100151.03;;;-6.97;100.00
55301;BME280;58302;51.446;-2.000;2022-12-10T03:51:31;100149.06;;;-6.87;100.00
55301;BME280;58302;51.446;-2.000;2022-12-10T03:53:56;100145.81;;;-6.81;100.00
55301;BME280;58302;51.446;-2.000;2022-12-10T03:56:22;100146.97;;;-6.75;100.00
55301;BME280;58302;51.446;-2.000;2022-12-10T03:58:48;100145.16;;;-6.75;100.00
55301;BME280;58302;51.446;-2.000;2022-12-10T04:01:15;100150.44;;;-6.75;100.00
55301;BME280;58302;51.446;-2.000;2022-12-10T04:03:42;100145.81;;;-6.81;100.00
55301;BME280;58302;51.446;-2.000;2022-12-10T04:06:13;100140.34;;;-6.79;100.00
55301;BME280;58302;51.446;-2.000;2022-12-10T04:08:39;100147.28;;;-6.78;100.00
55301;BME280;58302;51.446;-2.000;2022-12-10T04:11:08;100139.66;;;-6.81;100.00
55301;BME280;58302;51.446;-2.000;2022-12-10T04:13:35;100145.13;;;-6.83;100.00
55301;BME280;58302;51.446;-2.000;2022-12-10T04:16:21;100138.19;;;-6.84;100.00
55301;BME280;58302;51.446;-2.000;2022-12-10T04:19:07;100141.47;;;-6.82;100.00
55301;BME280;58302;51.446;-2.000;2022-12-10T04:21:35;100140.47;;;-6.89;100.00
55301;BME280;58302;51.446;-2.000;2022-12-10T04:24:22;100148.38;;;-6.97;100.00
55301;BME280;58302;51.446;-2.000;2022-12-10T04:27:10;100146.22;;;-7.02;100.00
55301;BME280;58302;51.446;-2.000;2022-12-10T04:29:37;100148.97;;;-7.11;100.00
55301;BME280;58302;51.446;-2.000;2022-12-10T04:32:03;100139.22;;;-7.19;100.00
55301;BME280;58302;51.446;-2.000;2022-12-10T04:34:29;100145.91;;;-7.33;100.00
55301;BME280;58302;51.446;-2.000;2022-12-10T04:36:57;100145.53;;;-7.38;100.00
55301;BME280;58302;51.446;-2.000;2022-12-10T04:39:23;100148.88;;;-7.36;100.00
55301;BME280;58302;51.446;-2.000;2022-12-10T04:41:49;100152.25;;;-7.18;100.00
55301;BME280;58302;51.446;-2.000;2022-12-10T04:44:16;100158.94;;;-6.97;100.00
55301;BME280;58302;51.446;-2.000;2022-12-10T04:46:42;100146.59;;;-6.88;100.00
55301;BME280;58302;51.446;-2.000;2022-12-10T04:49:08;100163.59;;;-6.91;100.00
55301;BME280;58302;51.446;-2.000;2022-12-10T04:51:34;100148.16;;;-7.04;100.00
55301;BME280;58302;51.446;-2.000;2022-12-10T04:54:01;100157.84;;;-7.21;100.00
55301;BME280;58302;51.446;-2.000;2022-12-10T04:56:27;100152.19;;;-7.26;100.00
55301;BME280;58302;51.446;-2.000;2022-12-10T04:58:55;100148.63;;;-7.17;100.00
55301;BME280;58302;51.446;-2.000;2022-12-10T05:01:21;100147.34;;;-7.04;100.00
55301;BME280;58302;51.446;-2.000;2022-12-10T05:03:47;100145.25;;;-6.93;100.00
55301;BME280;58302;51.446;-2.000;2022-12-10T05:06:14;100150.53;;;-6.93;100.00
55301;BME280;58302;51.446;-2.000;2022-12-10T05:08:41;100154.31;;;-6.95;100.00
55301;BME280;58302;51.446;-2.000;2022-12-10T05:11:10;100151.34;;;-7.00;100.00
55301;BME280;58302;51.446;-2.000;2022-12-10T05:13:37;100145.41;;;-7.02;100.00
55301;BME280;58302;51.446;-2.000;2022-12-10T05:16:05;100146.06;;;-7.00;100.00
55301;BME280;58302;51.446;-2.000;2022-12-10T05:18:31;100156.31;;;-6.97;100.00
55301;BME280;58302;51.446;-2.000;2022-12-10T05:20:59;100151.34;;;-7.00;100.00
55301;BME280;58302;51.446;-2.000;2022-12-10T05:23:25;100147.41;;;-6.96;100.00
55301;BME280;58302;51.446;-2.000;2022-12-10T05:26:15;100154.72;;;-6.74;100.00
55301;BME280;58302;51.446;-2.000;2022-12-10T05:28:44;100161.50;;;-6.71;100.00
55301;BME280;58302;51.446;-2.000;2022-12-10T05:31:12;100158.03;;;-6.72;100.00
55301;BME280;58302;51.446;-2.000;2022-12-10T05:33:39;100161.66;;;-6.73;100.00
55301;BME280;58302;51.446;-2.000;2022-12-10T05:36:06;100151.47;;;-6.51;100.00
55301;BME280;58302;51.446;-2.000;2022-12-10T05:38:33;100158.44;;;-6.34;100.00
55301;BME280;58302;51.446;-2.000;2022-12-10T05:41:12;100157.63;;;-6.26;100.00
55301;BME280;58302;51.446;-2.000;2022-12-10T05:43:39;100153.53;;;-6.21;100.00
55301;BME280;58302;51.446;-2.000;2022-12-10T05:46:09;100150.88;;;-6.13;100.00
55301;BME280;58302;51.446;-2.000;2022-12-10T05:48:36;100142.63;;;-6.09;100.00
55301;BME280;58302;51.446;-2.000;2022-12-10T05:51:07;100146.41;;;-6.04;100.00
55301;BME280;58302;51.446;-2.000;2022-12-10T05:53:33;100150.84;;;-6.04;100.00
55301;BME280;58302;51.446;-2.000;2022-12-10T05:56:01;100153.84;;;-6.07;100.00
55301;BME280;58302;51.446;-2.000;2022-12-10T05:58:28;100145.88;;;-6.16;100.00
55301;BME280;58302;51.446;-2.000;2022-12-10T06:00:55;100149.19;;;-6.22;100.00
55301;BME280;58302;51.446;-2.000;2022-12-10T06:03:21;100151.19;;;-6.24;100.00
55301;BME280;58302;51.446;-2.000;2022-12-10T06:05:47;100151.69;;;-6.28;100.00
55301;BME280;58302;51.446;-2.000;2022-12-10T06:08:13;100143.56;;;-6.35;100.00
55301;BME280;58302;51.446;-2.000;2022-12-10T06:10:39;100139.13;;;-6.34;100.00
55301;BME280;58302;51.446;-2.000;2022-12-10T06:13:05;100148.22;;;-6.29;100.00
55301;BME280;58302;51.446;-2.000;2022-12-10T06:15:31;100145.59;;;-6.21;100.00
55301;BME280;58302;51.446;-2.000;2022-12-10T06:17:58;100147.41;;;-6.13;100.00
55301;BME280;58302;51.446;-2.000;2022-12-10T06:20:25;100148.41;;;-6.14;100.00
55301;BME280;58302;51.446;-2.000;2022-12-10T06:22:52;100146.56;;;-6.14;100.00
55301;BME280;58302;51.446;-2.000;2022-12-10T06:25:18;100143.94;;;-6.14;100.00
55301;BME280;58302;51.446;-2.000;2022-12-10T06:27:44;100145.75;;;-6.14;100.00
55301;BME280;58302;51.446;-2.000;2022-12-10T06:30:10;100145.88;;;-6.16;100.00
55301;BME280;58302;51.446;-2.000;2022-12-10T06:32:36;100141.13;;;-6.20;100.00
55301;BME280;58302;51.446;-2.000;2022-12-10T06:35:03;100147.03;;;-6.26;100.00
55301;BME280;58302;51.446;-2.000;2022-12-10T06:37:29;100142.09;;;-6.29;100.00
55301;BME280;58302;51.446;-2.000;2022-12-10T06:39:55;100148.53;;;-6.32;100.00
55301;BME280;58302;51.446;-2.000;2022-12-10T06:42:21;100152.66;;;-6.29;100.00
55301;BME280;58302;51.446;-2.000;2022-12-10T06:44:47;100151.19;;;-6.24;100.00
55301;BME280;58302;51.446;-2.000;2022-12-10T06:47:13;100145.59;;;-6.21;100.00
55301;BME280;58302;51.446;-2.000;2022-12-10T06:49:40;100143.91;;;-6.30;100.00
55301;BME280;58302;51.446;-2.000;2022-12-10T06:52:06;100145.25;;;-6.26;100.00
55301;BME280;58302;51.446;-2.000;2022-12-10T06:54:32;100142.78;;;-6.19;100.00
55301;BME280;58302;51.446;-2.000;2022-12-10T06:56:59;100137.16;;;-6.24;100.00
55301;BME280;58302;51.446;-2.000;2022-12-10T06:59:25;100143.56;;;-6.27;100.00
55301;BME280;58302;51.446;-2.000;2022-12-10T07:01:51;100141.44;;;-6.23;100.00
55301;BME280;58302;51.446;-2.000;2022-12-10T07:04:17;100148.88;;;-6.19;100.00
55301;BME280;58302;51.446;-2.000;2022-12-10T07:06:43;100149.38;;;-6.15;100.00
55301;BME280;58302;51.446;-2.000;2022-12-10T07:09:09;100148.53;;;-6.16;100.00
55301;BME280;58302;51.446;-2.000;2022-12-10T07:11:38;100142.25;;;-6.23;100.00
55301;BME280;58302;51.446;-2.000;2022-12-10T07:14:04;100142.91;;;-6.29;100.00
55301;BME280;58302;51.446;-2.000;2022-12-10T07:16:31;100148.88;;;-6.35;100.00
55301;BME280;58302;51.446;-2.000;2022-12-10T07:18:59;100150.34;;;-6.41;100.00
55301;BME280;58302;51.446;-2.000;2022-12-10T07:21:29;100149.84;;;-6.44;100.00
55301;BME280;58302;51.446;-2.000;2022-12-10T07:23:57;100145.38;;;-6.44;100.00
55301;BME280;58302;51.446;-2.000;2022-12-10T07:26:24;100141.91;;;-6.44;100.00
55301;BME280;58302;51.446;-2.000;2022-12-10T07:28:50;100137.28;;;-6.50;100.00
55301;BME280;58302;51.446;-2.000;2022-12-10T07:31:16;100138.09;;;-6.50;100.00
55301;BME280;58302;51.446;-2.000;2022-12-10T07:33:42;100138.78;;;-6.40;100.00
55301;BME280;58302;51.446;-2.000;2022-12-10T07:36:10;100142.28;;;-6.31;100.00
55301;BME280;58302;51.446;-2.000;2022-12-10T07:38:37;100145.88;;;-6.32;100.00
55301;BME280;58302;51.446;-2.000;2022-12-10T07:41:05;100139.44;;;-6.38;100.00
55301;BME280;58302;51.446;-2.000;2022-12-10T07:43:39;100151.34;;;-6.42;100.00
55301;BME280;58302;51.446;-2.000;2022-12-10T07:46:08;100154.31;;;-6.37;100.00
55301;BME280;58302;51.446;-2.000;2022-12-10T07:48:36;100150.19;;;-6.31;100.00
55301;BME280;58302;51.446;-2.000;2022-12-10T07:51:02;100144.91;;;-6.31;100.00
55301;BME280;58302;51.446;-2.000;2022-12-10T07:53:29;100150.84;;;-6.29;100.00
55301;BME280;58302;51.446;-2.000;2022-12-10T07:55:55;100157.97;;;-6.29;100.00
55301;BME280;58302;51.446;-2.000;2022-12-10T07:58:21;100155.31;;;-6.29;100.00
55301;BME280;58302;51.446;-2.000;2022-12-10T08:00:47;100157.97;;;-6.29;100.00
55301;BME280;58302;51.446;-2.000;2022-12-10T08:03:13;100163.06;;;-6.28;100.00
55301;BME280;58302;51.446;-2.000;2022-12-10T08:05:39;100160.44;;;-6.12;100.00
55301;BME280;58302;51.446;-2.000;2022-12-10T08:08:05;100155.78;;;-5.85;100.00
55301;BME280;58302;51.446;-2.000;2022-12-10T08:10:35;100160.72;;;-5.58;100.00
55301;BME280;58302;51.446;-2.000;2022-12-10T08:13:02;100172.75;;;-5.39;100.00
55301;BME280;58302;51.446;-2.000;2022-12-10T08:15:28;100165.31;;;-5.27;100.00
55301;BME280;58302;51.446;-2.000;2022-12-10T08:17:55;100175.84;;;-5.19;100.00
55301;BME280;58302;51.446;-2.000;2022-12-10T08:20:22;100172.84;;;-5.08;100.00
55301;BME280;58302;51.446;-2.000;2022-12-10T08:22:48;100173.66;;;-4.99;100.00
55301;BME280;58302;51.446;-2.000;2022-12-10T08:25:14;100183.88;;;-4.88;100.00
55301;BME280;58302;51.446;-2.000;2022-12-10T08:27:40;100179.16;;;-4.69;100.00
55301;BME280;58302;51.446;-2.000;2022-12-10T08:30:07;100179.88;;;-4.53;100.00
55301;BME280;58302;51.446;-2.000;2022-12-10T08:32:33;100174.31;;;-4.35;100.00
55301;BME280;58302;51.446;-2.000;2022-12-10T08:34:59;100172.25;;;-4.25;100.00
55301;BME280;58302;51.446;-2.000;2022-12-10T08:37:25;100178.47;;;-4.09;100.00
55301;BME280;58302;51.446;-2.000;2022-12-10T08:39:51;100176.69;;;-3.94;100.00
55301;BME280;58302;51.446;-2.000;2022-12-10T08:42:17;100184.16;;;-3.75;100.00
55301;BME280;58302;51.446;-2.000;2022-12-10T08:44:43;100188.81;;;-3.39;100.00
55301;BME280;58302;51.446;-2.000;2022-12-10T08:47:09;100182.91;;;-2.97;100.00
55301;BME280;58302;51.446;-2.000;2022-12-10T08:49:35;100186.81;;;-2.63;100.00
55301;BME280;58302;51.446;-2.000;2022-12-10T08:52:01;100190.72;;;-2.59;100.00
55301;BME280;58302;51.446;-2.000;2022-12-10T08:54:27;100194.78;;;-2.63;100.00
55301;BME280;58302;51.446;-2.000;2022-12-10T08:56:53;100195.63;;;-2.62;100.00
55301;BME280;58302;51.446;-2.000;2022-12-10T08:59:19;100199.16;;;-2.55;100.00
55301;BME280;58302;51.446;-2.000;2022-12-10T09:01:45;100190.56;;;-2.57;100.00
55301;BME280;58302;51.446;-2.000;2022-12-10T09:04:11;100189.28;;;-2.61;100.00
55301;BME280;58302;51.446;-2.000;2022-12-10T09:06:38;100192.59;;;-2.74;100.00
55301;BME280;58302;51.446;-2.000;2022-12-10T09:09:04;100189.41;;;-2.84;100.00
55301;BME280;58302;51.446;-2.000;2022-12-10T09:11:32;100190.22;;;-2.84;100.00
55301;BME280;58302;51.446;-2.000;2022-12-10T09:13:59;100194.25;;;-2.73;100.00
55301;BME280;58302;51.446;-2.000;2022-12-10T09:16:31;100193.31;;;-2.66;100.00
55301;BME280;58302;51.446;-2.000;2022-12-10T09:18:58;100192.75;;;-2.46;100.00
55301;BME280;58302;51.446;-2.000;2022-12-10T09:21:24;100193.22;;;-2.21;100.00
55301;BME280;58302;51.446;-2.000;2022-12-10T09:23:51;100194.09;;;-1.93;100.00
55301;BME280;58302;51.446;-2.000;2022-12-10T09:26:20;100195.31;;;-1.74;100.00
55301;BME280;58302;51.446;-2.000;2022-12-10T09:28:46;100192.69;;;-1.46;100.00
55301;BME280;58302;51.446;-2.000;2022-12-10T09:31:14;100186.97;;;-1.15;100.00
55301;BME280;58302;51.446;-2.000;2022-12-10T09:33:41;100193.31;;;-0.81;100.00
55301;BME280;58302;51.446;-2.000;2022-12-10T09:36:09;100184.88;;;-0.43;100.00
55301;BME280;58302;51.446;-2.000;2022-12-10T09:38:37;100190.09;;;-0.15;100.00
55301;BME280;58302;51.446;-2.000;2022-12-10T09:44:11;100187.06;;;0.41;100.00
55301;BME280;58302;51.446;-2.000;2022-12-10T09:46:59;100197.53;;;0.75;100.00
55301;BME280;58302;51.446;-2.000;2022-12-10T09:52:13;100198.53;;;1.01;100.00
55301;BME280;58302;51.446;-2.000;2022-12-10T09:54:43;100198.31;;;1.09;100.00
55301;BME280;58302;51.446;-2.000;2022-12-10T09:57:40;100189.28;;;0.97;100.00
55301;BME280;58302;51.446;-2.000;2022-12-10T10:02:50;100194.66;;;0.70;100.00
55301;BME280;58302;51.446;-2.000;2022-12-10T10:05:28;100194.88;;;0.75;100.00
55301;BME280;58302;51.446;-2.000;2022-12-10T10:07:58;100191.53;;;0.93;100.00
55301;BME280;58302;51.446;-2.000;2022-12-10T10:10:30;100194.59;;;1.17;100.00
55301;BME280;58302;51.446;-2.000;2022-12-10T10:15:37;100199.59;;;1.58;100.00
55301;BME280;58302;51.446;-2.000;2022-12-10T10:18:13;100202.94;;;1.92;100.00
55301;BME280;58302;51.446;-2.000;2022-12-10T10:20:40;100207.50;;;2.23;100.00
55301;BME280;58302;51.446;-2.000;2022-12-10T10:23:08;100209.53;;;2.52;100.00
55301;BME280;58302;51.446;-2.000;2022-12-10T10:25:38;100206.69;;;2.97;100.00
55301;BME280;58302;51.446;-2.000;2022-12-10T10:28:03;100205.00;;;3.21;100.00
55301;BME280;58302;51.446;-2.000;2022-12-10T10:30:29;100196.63;;;3.48;100.00
55301;BME280;58302;51.446;-2.000;2022-12-10T10:32:57;100195.16;;;3.52;100.00
55301;BME280;58302;51.446;-2.000;2022-12-10T10:35:42;100186.56;;;3.43;100.00
55301;BME280;58302;51.446;-2.000;2022-12-10T10:38:27;100177.75;;;3.17;100.00
55301;BME280;58302;51.446;-2.000;2022-12-10T10:40:56;100185.50;;;3.07;100.00
55301;BME280;58302;51.446;-2.000;2022-12-10T10:46:04;100170.22;;;3.44;100.00
55301;BME280;58302;51.446;-2.000;2022-12-10T10:48:32;100161.88;;;3.16;100.00
55301;BME280;58302;51.446;-2.000;2022-12-10T10:56:21;100157.66;;;2.83;100.00
55301;BME280;58302;51.446;-2.000;2022-12-10T11:01:54;100152.84;;;3.10;100.00
55301;BME280;58302;51.446;-2.000;2022-12-10T11:06:50;100150.16;;;3.47;100.00
55301;BME280;58302;51.446;-2.000;2022-12-10T11:09:24;100156.63;;;3.58;100.00
55301;BME280;58302;51.446;-2.000;2022-12-10T11:12:02;100147.13;;;3.74;100.00
55301;BME280;58302;51.446;-2.000;2022-12-10T11:14:38;100147.94;;;3.74;100.00
55301;BME280;58302;51.446;-2.000;2022-12-10T11:19:36;100138.28;;;3.85;100.00
55301;BME280;58302;51.446;-2.000;2022-12-10T11:22:21;100135.16;;;4.00;100.00
55301;BME280;58302;51.446;-2.000;2022-12-10T11:24:48;100136.25;;;4.34;100.00
55301;BME280;58302;51.446;-2.000;2022-12-10T11:27:29;100133.78;;;4.09;100.00
55301;BME280;58302;51.446;-2.000;2022-12-10T11:30:09;100127.22;;;4.05;100.00
55301;BME280;58302;51.446;-2.000;2022-12-10T11:33:09;100129.91;;;4.05;100.00
55301;BME280;58302;51.446;-2.000;2022-12-10T11:35:53;100130.06;;;4.21;100.00
55301;BME280;58302;51.446;-2.000;2022-12-10T11:38:30;100115.47;;;4.29;100.00
55301;BME280;58302;51.446;-2.000;2022-12-10T11:41:15;100118.56;;;4.03;100.00
55301;BME280;58302;51.446;-2.000;2022-12-10T11:57:01;100099.66;;;4.44;100.00
55301;BME280;58302;51.446;-2.000;2022-12-10T12:02:29;100101.13;;;5.22;100.00
55301;BME280;58302;51.446;-2.000;2022-12-10T12:08:04;100096.03;;;5.26;100.00
55301;BME280;58302;51.446;-2.000;2022-12-10T12:14:01;100092.63;;;4.90;100.00
55301;BME280;58302;51.446;-2.000;2022-12-10T12:16:37;100084.44;;;4.85;100.00
55301;BME280;58302;51.446;-2.000;2022-12-10T12:19:31;100090.44;;;5.16;100.00
55301;BME280;58302;51.446;-2.000;2022-12-10T12:22:00;100082.97;;;5.46;100.00
55301;BME280;58302;51.446;-2.000;2022-12-10T12:24:46;100090.75;;;5.88;100.00
55301;BME280;58302;51.446;-2.000;2022-12-10T12:28:05;100085.06;;;6.18;100.00
55301;BME280;58302;51.446;-2.000;2022-12-10T12:30:37;100085.13;;;5.90;100.00
55301;BME280;58302;51.446;-2.000;2022-12-10T12:36:00;100083.59;;;5.65;100.00
55301;BME280;58302;51.446;-2.000;2022-12-10T12:38:41;100085.72;;;5.63;100.00
55301;BME280;58302;51.446;-2.000;2022-12-10T12:41:15;100079.72;;;5.90;100.00
55301;BME280;58302;51.446;-2.000;2022-12-10T12:46:33;100070.94;;;5.94;100.00
55301;BME280;58302;51.446;-2.000;2022-12-10T12:49:40;100070.22;;;6.16;100.00
55301;BME280;58302;51.446;-2.000;2022-12-10T12:54:44;100072.56;;;6.46;100.00
55301;BME280;58302;51.446;-2.000;2022-12-10T12:57:18;100065.78;;;6.82;100.00
55301;BME280;58302;51.446;-2.000;2022-12-10T13:02:23;100059.25;;;6.78;100.00
55301;BME280;58302;51.446;-2.000;2022-12-10T13:04:52;100058.31;;;6.50;100.00
55301;BME280;58302;51.446;-2.000;2022-12-10T13:09:52;100064.75;;;6.66;100.00
55301;BME280;58302;51.446;-2.000;2022-12-10T13:12:46;100061.44;;;6.08;100.00
55301;BME280;58302;51.446;-2.000;2022-12-10T13:15:23;100068.06;;;6.01;100.00
55301;BME280;58302;51.446;-2.000;2022-12-10T13:28:28;100050.06;;;5.44;100.00
55301;BME280;58302;51.446;-2.000;2022-12-10T13:36:36;100049.88;;;4.94;100.00
55301;BME280;58302;51.446;-2.000;2022-12-10T13:45:16;100056.63;;;4.68;100.00
55301;BME280;58302;51.446;-2.000;2022-12-10T13:47:51;100056.84;;;4.55;100.00
55301;BME280;58302;51.446;-2.000;2022-12-10T13:50:30;100057.44;;;4.33;100.00
55301;BME280;58302;51.446;-2.000;2022-12-10T14:03:56;100040.75;;;3.24;100.00
55301;BME280;58302;51.446;-2.000;2022-12-10T14:06:32;100040.19;;;3.04;100.00
55301;BME280;58302;51.446;-2.000;2022-12-10T14:09:11;100044.53;;;2.86;100.00
55301;BME280;58302;51.446;-2.000;2022-12-10T14:12:01;100047.97;;;2.75;100.00
55301;BME280;58302;51.446;-2.000;2022-12-10T14:14:33;100049.28;;;2.66;100.00
55301;BME280;58302;51.446;-2.000;2022-12-10T14:17:04;100051.25;;;2.59;100.00
55301;BME280;58302;51.446;-2.000;2022-12-10T14:19:30;100053.75;;;2.54;100.00
55301;BME280;58302;51.446;-2.000;2022-12-10T14:22:06;100051.13;;;2.47;100.00
55301;BME280;58302;51.446;-2.000;2022-12-10T14:24:35;100048.50;;;2.41;100.00
55301;BME280;58302;51.446;-2.000;2022-12-10T14:27:18;100056.41;;;2.35;100.00
55301;BME280;58302;51.446;-2.000;2022-12-10T14:29:51;100058.72;;;2.32;100.00
55301;BME280;58302;51.446;-2.000;2022-12-10T14:32:20;100061.25;;;2.27;100.00
55301;BME280;58302;51.446;-2.000;2022-12-10T14:34:54;100063.53;;;2.23;100.00
55301;BME280;58302;51.446;-2.000;2022-12-10T14:37:24;100064.19;;;2.19;100.00
55301;BME280;58302;51.446;-2.000;2022-12-10T14:39:51;100072.47;;;2.17;100.00